Latest Coastal Weather Observations for Cape Ferguson

IDQ60701

Issued at 7:52 am EST Friday 22 October 2021 (issued every 10 minutes, with the page automatically refreshed every 10 minutes)

About coastal observations | Map of coastal stations | Coastal observations for QLD | Marine services | Other Formats
Station Details ID: 032182 Name: CAPE FERGUSON NTC AWS Lat: -19.28 Lon: 147.06 Height: 0.0 m
Data from the previous 72 hours. | See also: Recent months for locations in Queensland
Date/Time
EST
Wind Sea
Height
m
Swell Vis
km
Cloud Weather Temp
°C
Press
MSL
hPa
Rain since
9am
mm
Dir  Spd
kts
Gust
kts
Height
m
Period
s
Dir
22/07:30am ESE 2 7 - - - - - - - 27.4 1013.7 -
22/07:00am WNW 2 7 - - - - - - - 27.0 1013.4 -
22/06:30am NW 2 7 - - - - - - - 26.7 1012.9 -
22/06:00am WSW 3 6 - - - - - - - 26.4 1012.4 -
22/05:30am NW 4 9 - - - - - - - 26.4 1012.0 -
22/05:00am W 2 5 - - - - - - - 26.4 1011.7 -
22/04:30am WNW 5 10 - - - - - - - 26.4 1011.4 -
22/04:00am WNW 4 9 - - - - - - - 26.4 1011.1 -
22/03:30am WNW 5 8 - - - - - - - 26.5 1011.0 -
22/03:00am WNW 4 9 - - - - - - - 26.5 1010.7 -
22/02:30am W 3 9 - - - - - - - 26.5 1010.7 -
22/02:00am WNW 5 11 - - - - - - - 26.6 1010.7 -
22/01:30am WNW 5 10 - - - - - - - 26.6 1010.8 -
22/01:00am NW 4 10 - - - - - - - 26.6 1011.0 -
22/12:30am WNW 6 11 - - - - - - - 26.6 1011.3 -
22/12:00am NW 5 10 - - - - - - - 26.7 1011.2 -
 
Date/Time
EST
Wind Sea
Height
m
Swell Vis
km
Cloud Weather Temp
°C
Press
MSL
hPa
Rain since
9am
mm
Dir  Spd
kts
Gust
kts
Height
m
Period
s
Dir
21/11:30pm NW 5 9 - - - - - - - 26.8 1011.6 -
21/11:00pm NW 5 10 - - - - - - - 26.7 1011.8 -
21/10:30pm WNW 6 12 - - - - - - - 26.8 1011.9 -
21/10:00pm NW 6 12 - - - - - - - 26.8 1011.9 -
21/09:30pm WNW 6 12 - - - - - - - 26.9 1012.0 -
21/09:00pm NW 6 14 - - - - - - - 26.9 1011.8 -
21/08:30pm WNW 5 9 - - - - - - - 26.8 1011.5 -
21/08:00pm NW 5 12 - - - - - - - 26.9 1011.3 -
21/07:30pm WNW 5 12 - - - - - - - 26.9 1011.0 -
21/07:00pm WSW 2 6 - - - - - - - 26.9 1010.8 -
21/06:30pm ESE 2 7 - - - - - - - 26.9 1010.4 -
21/06:00pm E 3 11 - - - - - - - 27.1 1010.0 -
21/05:30pm SSW 3 9 - - - - - - - 27.1 1009.4 -
21/05:00pm SE 4 12 - - - - - - - 27.5 1008.9 -
21/04:30pm E 6 12 - - - - - - - 27.7 1008.6 -
21/04:00pm S 3 8 - - - - - - - 27.8 1008.6 -
21/03:30pm SSW 4 11 - - - - - - - 27.8 1008.7 -
21/03:28pm S 3 11 - - - - - - - 27.9 1008.7 -
21/03:26pm SSE 4 11 - - - - - - - 27.8 1000.8 -
21/03:00pm S 4 12 - - - - - - - 28.2 1008.9 -
21/02:30pm NNW 4 14 - - - - - - - 28.3 - -
21/02:00pm NW 5 13 - - - - - - - 28.3 - -
21/01:30pm NNW 5 13 - - - - - - - 28.1 - -
21/01:00pm NW 4 11 - - - - - - - 27.9 - -
21/12:30pm WNW 4 11 - - - - - - - 27.6 - -
21/12:00pm W 5 12 - - - - - - - 27.9 - -
21/11:30am WSW 5 12 - - - - - - - 27.8 - -
21/11:00am S 4 9 - - - - - - - 28.0 - -
21/10:30am WSW 4 13 - - - - - - - 28.0 - -
21/10:00am W 4 10 - - - - - - - 27.9 - -
21/09:30am W 5 11 - - - - - - - 27.8 - -
21/09:00am SE 3 9 - - - - - - - 27.9 - -
21/08:30am S 3 7 - - - - - - - 27.5 - -
21/08:00am S 4 8 - - - - - - - 27.0 - -
21/07:30am ESE 3 9 - - - - - - - 27.3 - -
21/07:00am S 4 8 - - - - - - - 27.1 1011.3 -
21/06:30am SSE 3 9 - - - - - - - 26.6 - -
21/06:00am SW 4 8 - - - - - - - 26.4 - -
21/05:30am ENE 6 12 - - - - - - - 26.3 - -
21/05:00am SE 3 8 - - - - - - - 26.3 - -
21/04:30am ESE 3 8 - - - - - - - 26.3 - -
21/04:00am SE 2 8 - - - - - - - 26.4 - -
21/03:30am SSE 3 6 - - - - - - - 26.4 - -
21/03:00am WSW 3 9 - - - - - - - 26.3 1009.7 -
21/02:30am SW 3 9 - - - - - - - 26.4 - -
21/02:00am S 3 10 - - - - - - - 26.6 - -
21/01:30am ENE 4 10 - - - - - - - 26.6 - -
21/01:00am E 4 9 - - - - - - - 26.6 1010.5 -
21/12:30am ENE 4 11 - - - - - - - 26.7 - -
21/12:00am ENE 4 10 - - - - - - - 26.7 1011.4 -
 
Date/Time
EST
Wind Sea
Height
m
Swell Vis
km
Cloud Weather Temp
°C
Press
MSL
hPa
Rain since
9am
mm
Dir  Spd
kts
Gust
kts
Height
m
Period
s
Dir
20/11:30pm ENE 6 15 - - - - - - - 26.7 - -
20/11:00pm E 3 7 - - - - - - - 26.7 - -
20/10:30pm SE 3 7 - - - - - - - 26.7 - -
20/10:00pm ENE 4 11 - - - - - - - 26.7 1011.5 -
20/09:30pm WSW 4 8 - - - - - - - 26.6 - -
20/09:00pm S 3 6 - - - - - - - 26.8 - -
20/08:30pm N 2 6 - - - - - - - 26.9 1010.5 -
20/08:00pm WNW 6 13 - - - - - - - 26.8 - -
20/07:30pm WNW 3 9 - - - - - - - 26.9 - -
20/07:00pm NW 8 14 - - - - - - - 27.0 1009.3 -
20/06:30pm NW 6 13 - - - - - - - 27.0 - -
20/06:00pm NW 8 19 - - - - - - - 27.1 - -
20/05:30pm NW 6 17 - - - - - - - 27.2 1008.4 -
20/05:00pm WNW 4 12 - - - - - - - 27.6 1008.2 -
20/04:30pm W 3 11 - - - - - - - 27.4 1008.1 -
20/04:00pm SE 4 11 - - - - - - - 27.0 - -
20/03:30pm N 5 13 - - - - - - - 27.1 - -
20/03:00pm W 4 11 - - - - - - - 27.7 1008.2 -
20/02:30pm NE 6 16 - - - - - - - 27.7 1008.6 -
20/02:00pm ENE 5 13 - - - - - - - 27.8 1009.0 -
20/01:30pm ENE 8 18 - - - - - - - 27.8 - -
20/01:00pm SSW 5 12 - - - - - - - 27.9 - -
20/12:30pm WSW 6 13 - - - - - - - 28.6 1010.0 -
20/12:00pm NW 8 16 - - - - - - - 28.5 1010.7 -
20/11:30am NW 10 18 - - - - - - - 28.3 1011.3 -
20/11:00am NW 9 19 - - - - - - - 28.5 1011.5 -
20/10:30am NW 7 17 - - - - - - - 28.1 - -
20/10:00am NW 5 12 - - - - - - - 28.4 - -
20/09:30am WNW 4 7 - - - - - - - 28.1 - -
20/09:00am W 8 15 - - - - - - - 28.0 1012.7 -
20/08:30am SSW 4 9 - - - - - - - 27.7 - -
20/08:00am N 2 7 - - - - - - - 27.5 1012.7 -
20/07:30am S 2 5 - - - - - - - 27.1 1012.5 -
20/07:00am ENE 2 5 - - - - - - - 27.2 - -
20/06:30am N 3 8 - - - - - - - 26.5 - -
20/06:00am NNW 3 6 - - - - - - - 26.3 - -
20/05:30am NNW 5 10 - - - - - - - 26.1 - -
20/05:00am NW 4 9 - - - - - - - 26.1 - -
20/04:30am NNW 4 9 - - - - - - - 26.1 - -
20/04:00am NW 5 8 - - - - - - - 26.0 1010.7 -
20/03:30am NW 5 9 - - - - - - - 26.0 - -
20/03:00am NNW 4 7 - - - - - - - 26.0 1010.9 -
20/02:30am NNW 3 6 - - - - - - - 26.1 1011.1 -
20/02:00am NNW 5 9 - - - - - - - 26.4 - -
20/01:30am NW 5 7 - - - - - - - 26.2 - -
20/01:00am NNW 3 6 - - - - - - - 26.1 - -
20/12:30am NNW 3 6 - - - - - - - 26.2 1012.3 -
20/12:00am NNW 1 4 - - - - - - - 25.9 - -
 
Date/Time
EST
Wind Sea
Height
m
Swell Vis
km
Cloud Weather Temp
°C
Press
MSL
hPa
Rain since
9am
mm
Dir  Spd
kts
Gust
kts
Height
m
Period
s
Dir
19/11:30pm NE 2 6 - - - - - - - 26.0 1013.1 -
19/11:00pm NW 1 3 - - - - - - - 26.0 - -
19/10:30pm WNW 1 4 - - - - - - - 25.6 1013.4 -
19/10:00pm WNW 3 5 - - - - - - - 25.6 1013.5 -
19/09:30pm NNW 1 4 - - - - - - - 25.6 1013.3 -
19/09:00pm N 3 7 - - - - - - - 25.8 - -
19/08:30pm NW 4 8 - - - - - - - 25.9 1012.5 -
19/08:00pm NW 3 7 - - - - - - - 26.2 - -
19/07:30pm NW 5 7 - - - - - - - 25.5 1012.7 -
19/07:00pm NNE 4 7 - - - - - - - 25.2 1012.4 -
19/06:30pm NE 2 3 - - - - - - - 25.8 - -
19/06:00pm SSE 3 8 - - - - - - - 26.0 - -
19/05:30pm ENE 3 10 - - - - - - - 26.1 1011.5 -
19/05:00pm ENE 4 9 - - - - - - - 26.4 - -
19/04:30pm E 3 9 - - - - - - - 24.9 1012.1 -
19/04:00pm SW 12 27 - - - - - - - 24.1 1013.6 -
19/03:57pm WSW 16 27 - - - - - - - 23.6 - -
19/03:49pm SW 13 25 - - - - - - - 26.7 - -
19/03:30pm WNW 4 10 - - - - - - - 26.6 - -
19/03:00pm WNW 5 15 - - - - - - - 26.7 1011.4 -
19/02:30pm E 6 13 - - - - - - - 27.4 1010.5 -
19/02:00pm E 6 14 - - - - - - - 27.7 - -
19/01:30pm NE 7 15 - - - - - - - 27.5 - -
19/01:00pm NE 7 15 - - - - - - - 27.4 1013.3 -
19/12:30pm NE 7 14 - - - - - - - 27.5 - -
19/12:00pm ENE 6 15 - - - - - - - 27.8 - -
19/11:30am NE 7 13 - - - - - - - 27.5 1014.4 -
19/11:00am NE 7 13 - - - - - - - 27.6 - -
19/10:30am NW 5 15 - - - - - - - 27.9 1014.6 -
19/10:00am WNW 5 12 - - - - - - - 27.6 - -
19/09:30am NW 7 13 - - - - - - - 27.7 1015.1 -
19/09:00am WNW 10 15 - - - - - - - 27.2 - -
19/08:30am NW 6 11 - - - - - - - 27.4 - -
19/08:00am WNW 7 13 - - - - - - - 26.9 - -

Other formats

Comma delimited format used in spreadsheet applications
http://www.bom.gov.au/fwo/IDQ60701/IDQ60701.94297.axf

JavaScript Object Notation format (JSON) in row-major order
http://www.bom.gov.au/fwo/IDQ60701/IDQ60701.94297.json

Data quality

Most of these data are generated automatically and are frequently updated. Quality checks on data are not normally performed. It is possible for incorrect values to appear. Refer to information at About Latest Weather Observations and please check the disclaimer before using these data.